Time;durP1;ratioP1;P1;durP2;ratioP2;P2;SDS_P1;SDS_P2;PMS_P1;PMS_P2;Temp;Humidity;BMP_temperature;BMP_pressure;BME280_temperature;BME280_humidity;BME280_pressure;Samples;Min_cycle;Max_cycle;Signal;HPM_P1;HPM_P2
2022/12/09 00:01:11;;;;;;;20.60;9.13;;;-2.10;99.90;;;;;;5026021;28;20441;-60
2022/12/09 00:03:37;;;;;;;16.00;7.50;;;-2.10;99.90;;;;;;5026128;28;20432;-59
2022/12/09 00:06:21;;;;;;;14.67;8.50;;;-2.20;99.90;;;;;;5030781;28;20419;-59
2022/12/09 00:08:48;;;;;;;17.27;9.60;;;-2.10;99.90;;;;;;5022829;28;20193;-59
2022/12/09 00:11:14;;;;;;;18.30;8.80;;;-2.20;99.90;;;;;;5024082;28;20960;-60
2022/12/09 00:13:40;;;;;;;18.47;9.30;;;-2.10;99.90;;;;;;5027053;28;20427;-59
2022/12/09 00:16:11;;;;;;;20.37;9.47;;;-2.10;99.90;;;;;;5024289;28;20263;-60
2022/12/09 00:18:38;;;;;;;18.83;9.40;;;-2.10;99.90;;;;;;5029876;28;20473;-59
2022/12/09 00:21:33;;;;;;;19.40;9.60;;;-2.20;99.90;;;;;;5029707;28;20818;-59
2022/12/09 00:24:02;;;;;;;22.43;10.23;;;-2.20;99.90;;;;;;5000795;28;20497;-59
2022/12/09 00:26:28;;;;;;;15.20;9.53;;;-2.20;99.90;;;;;;5008240;28;20481;-60
2022/12/09 00:28:55;;;;;;;17.60;9.13;;;-2.20;99.90;;;;;;5025286;28;20457;-59
2022/12/09 00:31:31;;;;;;;20.23;9.90;;;-2.10;99.90;;;;;;5021945;28;21077;-59
2022/12/09 00:33:59;;;;;;;19.87;10.50;;;-2.10;99.90;;;;;;5026751;28;20963;-60
2022/12/09 00:36:26;;;;;;;19.13;9.73;;;-2.10;99.90;;;;;;5029101;28;20435;-59
2022/12/09 00:38:54;;;;;;;17.83;9.90;;;-2.10;99.90;;;;;;5027708;28;20844;-60
2022/12/09 00:41:20;;;;;;;15.43;8.93;;;-2.10;99.90;;;;;;5026182;28;20476;-60
2022/12/09 00:43:46;;;;;;;21.67;11.07;;;-2.20;99.90;;;;;;5011691;28;20951;-60
2022/12/09 00:46:13;;;;;;;17.00;9.37;;;-2.10;99.90;;;;;;5028017;28;20441;-60
2022/12/09 00:48:39;;;;;;;18.20;10.33;;;-2.10;99.90;;;;;;5021910;28;20464;-59
2022/12/09 00:51:07;;;;;;;18.77;9.37;;;-2.10;99.90;;;;;;5027475;28;21055;-60
2022/12/09 00:53:33;;;;;;;15.03;8.80;;;-2.10;99.90;;;;;;5024526;28;20436;-60
2022/12/09 00:55:58;;;;;;;16.23;10.10;;;-2.10;99.90;;;;;;5027514;28;20444;-59
2022/12/09 00:58:25;;;;;;;19.53;9.23;;;-2.10;99.90;;;;;;5018628;28;21030;-60
2022/12/09 01:00:52;;;;;;;16.70;8.73;;;-2.10;99.90;;;;;;5024630;28;20179;-60
2022/12/09 01:03:19;;;;;;;17.07;9.43;;;-2.00;99.90;;;;;;5028138;28;20791;-60
2022/12/09 01:05:45;;;;;;;18.53;8.50;;;-2.00;99.90;;;;;;5019679;28;20443;-59
2022/12/09 01:08:12;;;;;;;14.10;8.40;;;-2.00;99.90;;;;;;5022682;28;20464;-60
2022/12/09 01:10:39;;;;;;;17.67;8.17;;;-2.00;99.90;;;;;;5028518;28;20498;-60
2022/12/09 01:13:05;;;;;;;16.00;8.70;;;-2.00;99.90;;;;;;5027605;28;20882;-61
2022/12/09 01:15:31;;;;;;;17.33;8.47;;;-2.00;99.90;;;;;;5021051;28;20783;-61
2022/12/09 01:17:56;;;;;;;16.07;9.13;;;-2.00;99.90;;;;;;5021635;28;20609;-60
2022/12/09 01:20:22;;;;;;;15.17;9.20;;;-2.00;99.90;;;;;;5024586;28;20580;-59
2022/12/09 01:22:48;;;;;;;18.53;9.30;;;-2.00;99.90;;;;;;5026373;28;20208;-61
2022/12/09 01:25:14;;;;;;;14.03;8.63;;;-2.00;99.90;;;;;;5023272;28;20223;-59
2022/12/09 01:27:40;;;;;;;14.53;8.40;;;-2.00;99.90;;;;;;5022723;28;20637;-59
2022/12/09 01:30:07;;;;;;;15.10;8.57;;;-2.00;99.90;;;;;;5024093;28;20201;-60
2022/12/09 01:32:33;;;;;;;15.00;8.17;;;-2.00;99.90;;;;;;5025996;28;20494;-62
2022/12/09 01:34:58;;;;;;;18.07;8.90;;;-2.00;99.90;;;;;;5024212;28;20436;-59
2022/12/09 01:37:24;;;;;;;14.73;7.93;;;-1.90;99.90;;;;;;5024048;28;20669;-60
2022/12/09 01:39:50;;;;;;;19.10;9.17;;;-1.90;99.90;;;;;;5024103;28;20681;-59
2022/12/09 01:42:21;;;;;;;16.70;8.17;;;-1.90;99.90;;;;;;5022168;28;20182;-61
2022/12/09 01:45:20;;;;;;;18.03;8.30;;;-1.90;99.90;;;;;;5021214;28;20177;-60
2022/12/09 01:48:13;;;;;;;16.10;8.10;;;-1.90;99.90;;;;;;5023175;28;20548;-58
2022/12/09 01:50:47;;;;;;;15.67;8.60;;;-1.90;99.90;;;;;;5022226;28;20447;-59
2022/12/09 01:53:14;;;;;;;15.00;8.30;;;-1.90;99.90;;;;;;5022244;28;20471;-59
2022/12/09 01:55:41;;;;;;;14.60;8.53;;;-1.90;99.90;;;;;;5022536;28;20444;-59
2022/12/09 01:58:08;;;;;;;13.77;7.47;;;-1.90;99.90;;;;;;5003645;28;20467;-59
2022/12/09 02:00:33;;;;;;;13.10;8.33;;;-1.90;99.90;;;;;;5020409;28;20594;-60
2022/12/09 02:03:01;;;;;;;12.20;8.10;;;-1.80;99.90;;;;;;5026958;28;20516;-60
2022/12/09 02:05:29;;;;;;;13.30;6.77;;;-1.80;99.90;;;;;;5024967;28;20729;-60
2022/12/09 02:07:54;;;;;;;15.50;7.87;;;-1.90;99.90;;;;;;5025761;28;21108;-60
2022/12/09 02:10:21;;;;;;;11.37;6.53;;;-1.80;99.90;;;;;;5023479;28;20448;-60
2022/12/09 02:12:49;;;;;;;11.10;6.63;;;-1.90;99.90;;;;;;5024012;28;20209;-60
2022/12/09 02:15:26;;;;;;;13.67;6.53;;;-1.80;99.90;;;;;;5026757;28;20434;-60
2022/12/09 02:17:56;;;;;;;11.57;6.33;;;-1.80;99.90;;;;;;5025892;28;20467;-60
2022/12/09 02:20:24;;;;;;;8.07;5.67;;;-1.80;99.90;;;;;;5026371;28;20443;-59
2022/12/09 02:23:33;;;;;;;11.10;6.20;;;-1.80;99.90;;;;;;5026165;28;20436;-60
2022/12/09 02:26:13;;;;;;;9.83;5.77;;;-1.80;99.90;;;;;;5011656;28;20460;-60
2022/12/09 02:29:00;;;;;;;11.10;6.23;;;-1.80;99.90;;;;;;5017703;28;20456;-60
2022/12/09 02:31:25;;;;;;;11.33;6.63;;;-1.70;99.90;;;;;;5004003;28;20440;-60
2022/12/09 02:34:09;;;;;;;11.00;6.10;;;-1.70;99.90;;;;;;5031578;28;20876;-59
2022/12/09 02:37:07;;;;;;;14.53;6.57;;;-1.80;99.90;;;;;;5026096;28;20949;-60
2022/12/09 02:39:45;;;;;;;14.60;6.60;;;-1.80;99.90;;;;;;5024288;28;20436;-60
2022/12/09 02:42:15;;;;;;;9.97;6.30;;;-1.80;99.90;;;;;;5029080;28;20485;-59
2022/12/09 02:44:43;;;;;;;12.07;6.53;;;-1.80;99.90;;;;;;5029943;28;20492;-61
2022/12/09 02:47:14;;;;;;;10.47;5.90;;;-1.80;99.90;;;;;;5022132;28;20453;-59
2022/12/09 02:49:41;;;;;;;15.70;7.27;;;-1.70;99.90;;;;;;5028681;28;20419;-59
2022/12/09 02:52:08;;;;;;;12.70;7.20;;;-1.70;99.90;;;;;;5027618;28;20488;-60
2022/12/09 02:54:36;;;;;;;10.00;6.57;;;-1.70;99.90;;;;;;5020339;28;20431;-60
2022/12/09 02:57:12;;;;;;;12.43;6.10;;;-1.70;99.90;;;;;;5029219;28;20467;-59
2022/12/09 02:59:37;;;;;;;11.00;6.53;;;-1.70;99.90;;;;;;5028851;28;20423;-60
2022/12/09 03:02:28;;;;;;;11.47;5.80;;;-1.70;99.90;;;;;;5030843;28;20421;-59
2022/12/09 03:05:22;;;;;;;9.80;6.07;;;-1.70;99.90;;;;;;5013435;28;20174;-59
2022/12/09 03:07:53;;;;;;;13.17;7.43;;;-1.70;99.90;;;;;;5024184;28;20470;-58
2022/12/09 03:10:35;;;;;;;9.83;6.80;;;-1.60;99.90;;;;;;5011812;28;20948;-59
2022/12/09 03:13:16;;;;;;;16.53;7.00;;;-1.60;99.90;;;;;;5019360;28;20436;-60
2022/12/09 03:15:48;;;;;;;10.47;6.77;;;-1.60;99.90;;;;;;5027423;28;20936;-59
2022/12/09 03:18:16;;;;;;;12.93;5.60;;;-1.60;99.90;;;;;;5011939;28;20476;-59
2022/12/09 03:20:44;;;;;;;11.20;6.60;;;-1.60;99.90;;;;;;5020700;28;20428;-59
2022/12/09 03:23:14;;;;;;;9.67;5.70;;;-1.60;99.90;;;;;;5031302;28;20499;-59
2022/12/09 03:25:44;;;;;;;13.30;6.37;;;-1.60;99.90;;;;;;5027348;28;20799;-58
2022/12/09 03:28:20;;;;;;;8.77;5.87;;;-1.50;99.90;;;;;;5027160;28;20464;-59
2022/12/09 03:30:46;;;;;;;12.40;5.97;;;-1.50;99.90;;;;;;5026736;28;20435;-59
2022/12/09 03:33:17;;;;;;;10.70;6.77;;;-1.50;99.90;;;;;;5030877;28;20432;-59
2022/12/09 03:35:49;;;;;;;9.90;6.37;;;-1.50;99.90;;;;;;5005630;28;20464;-59
2022/12/09 03:38:17;;;;;;;11.07;6.60;;;-1.50;99.90;;;;;;5009566;28;20489;-58
2022/12/09 03:40:45;;;;;;;14.07;7.07;;;-1.50;99.90;;;;;;5026480;28;20456;-59
2022/12/09 03:43:25;;;;;;;9.20;5.87;;;-1.40;99.90;;;;;;5020101;28;20433;-59
2022/12/09 03:45:53;;;;;;;10.77;6.80;;;-1.50;99.90;;;;;;5018944;28;20498;-58
2022/12/09 03:48:19;;;;;;;11.53;6.97;;;-1.50;99.90;;;;;;5028467;28;20456;-59
2022/12/09 03:51:06;;;;;;;11.17;5.90;;;-1.40;99.90;;;;;;5022278;28;20451;-58
2022/12/09 03:53:43;;;;;;;13.00;6.90;;;-1.40;99.90;;;;;;5021700;28;20527;-59
2022/12/09 03:56:21;;;;;;;10.50;7.00;;;-1.40;99.90;;;;;;5016985;28;20462;-59
2022/12/09 03:58:48;;;;;;;11.97;7.23;;;-1.40;99.90;;;;;;5009566;28;20558;-59
2022/12/09 04:01:15;;;;;;;13.57;7.80;;;-1.40;99.90;;;;;;5027059;28;20445;-59
2022/12/09 04:03:43;;;;;;;12.43;7.47;;;-1.30;99.90;;;;;;5025586;28;20424;-59
2022/12/09 04:06:10;;;;;;;12.53;7.47;;;-1.30;99.90;;;;;;5028077;28;20479;-59
2022/12/09 04:08:36;;;;;;;12.57;7.93;;;-1.30;99.90;;;;;;5025900;28;20545;-61
2022/12/09 04:11:01;;;;;;;14.43;7.93;;;-1.20;99.90;;;;;;5008683;28;20674;-59
2022/12/09 04:13:27;;;;;;;13.50;7.60;;;-1.20;99.90;;;;;;5026984;28;20178;-60
2022/12/09 04:15:52;;;;;;;16.03;9.13;;;-1.20;99.90;;;;;;5022949;28;20186;-59
2022/12/09 04:18:18;;;;;;;19.17;9.43;;;-1.20;99.90;;;;;;5030159;28;20193;-60
2022/12/09 04:20:43;;;;;;;13.77;8.30;;;-1.20;99.90;;;;;;5024076;28;20821;-59
2022/12/09 04:23:09;;;;;;;16.57;9.20;;;-1.10;99.90;;;;;;5026769;28;20186;-59
2022/12/09 04:25:36;;;;;;;19.33;10.10;;;-1.10;99.90;;;;;;5026515;28;20803;-59
2022/12/09 04:28:02;;;;;;;20.83;9.83;;;-1.10;99.90;;;;;;5021196;28;20201;-59
2022/12/09 04:30:28;;;;;;;16.80;9.60;;;-1.10;99.90;;;;;;5020945;28;20929;-59
2022/12/09 04:32:53;;;;;;;17.73;10.60;;;-1.10;99.90;;;;;;5009867;28;20792;-60
2022/12/09 04:35:19;;;;;;;15.20;9.30;;;-1.10;99.90;;;;;;5026883;28;20189;-60
2022/12/09 04:37:44;;;;;;;19.10;10.20;;;-1.10;99.90;;;;;;5021714;28;20214;-60
2022/12/09 04:40:11;;;;;;;22.90;11.43;;;-1.10;99.90;;;;;;5026776;28;20184;-60
2022/12/09 04:42:36;;;;;;;20.20;11.27;;;-1.10;99.90;;;;;;5021560;28;20246;-60
2022/12/09 04:45:03;;;;;;;17.70;10.43;;;-1.10;99.90;;;;;;5023917;28;20841;-59
2022/12/09 04:47:29;;;;;;;18.50;10.17;;;-1.10;99.90;;;;;;5011659;28;20196;-59
2022/12/09 04:49:54;;;;;;;17.13;9.97;;;-1.00;99.90;;;;;;5011532;28;20437;-59
2022/12/09 04:52:20;;;;;;;19.63;10.20;;;-1.00;99.90;;;;;;5020306;28;20197;-59
2022/12/09 04:54:48;;;;;;;22.90;10.50;;;-1.00;99.90;;;;;;5024539;28;20240;-60
2022/12/09 04:57:14;;;;;;;18.13;10.07;;;-1.10;99.90;;;;;;5021036;28;20211;-59
2022/12/09 04:59:40;;;;;;;26.63;11.73;;;-1.10;99.90;;;;;;5021517;28;20440;-59
2022/12/09 05:02:05;;;;;;;19.37;10.70;;;-1.10;99.90;;;;;;5016244;28;20255;-59
2022/12/09 05:04:31;;;;;;;22.07;11.60;;;-1.10;99.90;;;;;;4999038;28;20182;-57
2022/12/09 05:06:57;;;;;;;21.37;11.13;;;-1.10;99.90;;;;;;5017871;28;20173;-55
2022/12/09 05:09:22;;;;;;;23.83;11.83;;;-1.00;99.90;;;;;;5022946;28;20514;-56
2022/12/09 05:11:48;;;;;;;21.47;11.10;;;-1.10;99.90;;;;;;5021210;28;20171;-54
2022/12/09 05:14:14;;;;;;;28.10;12.67;;;-1.00;99.90;;;;;;5016491;28;20193;-56
2022/12/09 05:16:39;;;;;;;25.00;12.70;;;-1.00;99.90;;;;;;5015265;28;20178;-60
2022/12/09 05:19:05;;;;;;;24.03;11.67;;;-1.00;99.90;;;;;;5013372;28;20245;-59
2022/12/09 05:21:30;;;;;;;23.20;12.67;;;-1.00;99.90;;;;;;5018942;28;20182;-59
2022/12/09 05:23:56;;;;;;;26.10;12.70;;;-0.90;99.90;;;;;;5021963;28;20216;-61
2022/12/09 05:26:22;;;;;;;25.37;13.50;;;-0.90;99.90;;;;;;5012307;28;20651;-60
2022/12/09 05:28:49;;;;;;;27.43;13.27;;;-0.90;99.90;;;;;;5019715;28;20213;-59
2022/12/09 05:31:18;;;;;;;28.50;14.30;;;-0.90;99.90;;;;;;5020211;28;20448;-58
2022/12/09 05:33:44;;;;;;;24.60;13.07;;;-0.80;99.90;;;;;;5022403;28;20430;-60
2022/12/09 05:36:11;;;;;;;24.53;12.83;;;-0.80;99.90;;;;;;5005186;28;20805;-59
2022/12/09 05:38:37;;;;;;;23.97;11.40;;;-0.80;99.90;;;;;;5018992;28;20478;-59
2022/12/09 05:41:04;;;;;;;26.60;11.87;;;-0.80;99.90;;;;;;5015972;28;20425;-59
2022/12/09 05:43:30;;;;;;;27.83;13.13;;;-0.80;99.90;;;;;;5023022;28;20447;-59
2022/12/09 05:45:56;;;;;;;23.87;11.70;;;-0.80;99.90;;;;;;5016748;28;20445;-59
2022/12/09 05:48:22;;;;;;;25.77;13.97;;;-0.80;99.90;;;;;;5017413;28;20469;-58
2022/12/09 05:51:03;;;;;;;28.83;13.80;;;-0.80;99.90;;;;;;5004907;28;20277;-58
2022/12/09 05:53:29;;;;;;;26.77;14.03;;;-0.80;99.90;;;;;;5009754;28;20182;-58
2022/12/09 05:55:55;;;;;;;27.63;13.87;;;-0.80;99.90;;;;;;5006149;28;20953;-58
2022/12/09 05:58:21;;;;;;;30.23;14.80;;;-0.80;99.90;;;;;;5017004;28;21047;-58
2022/12/09 06:00:47;;;;;;;26.60;14.67;;;-0.70;99.90;;;;;;5019712;28;20182;-58
2022/12/09 06:03:13;;;;;;;30.07;14.90;;;-0.80;99.90;;;;;;4997661;28;20193;-59
2022/12/09 06:05:38;;;;;;;30.70;14.07;;;-0.70;99.90;;;;;;5024077;28;20433;-58
2022/12/09 06:08:05;;;;;;;24.67;14.07;;;-0.80;99.90;;;;;;5018409;28;20225;-58
2022/12/09 06:10:30;;;;;;;25.63;13.43;;;-0.80;99.90;;;;;;5023019;28;20673;-58
2022/12/09 06:12:56;;;;;;;29.43;13.30;;;-0.70;99.90;;;;;;5030408;28;20542;-58
2022/12/09 06:15:23;;;;;;;29.37;13.80;;;-0.70;99.90;;;;;;5033080;28;20460;-58
2022/12/09 06:17:49;;;;;;;32.37;13.17;;;-0.70;99.90;;;;;;5026701;28;20476;-59
2022/12/09 06:20:15;;;;;;;33.37;15.87;;;-0.70;99.90;;;;;;5021846;28;20443;-58
2022/12/09 06:22:40;;;;;;;30.77;14.97;;;-0.70;99.90;;;;;;5027765;28;21002;-58
2022/12/09 06:25:06;;;;;;;28.90;14.73;;;-0.70;99.90;;;;;;5024641;28;20174;-58
2022/12/09 06:27:32;;;;;;;26.67;13.50;;;-0.70;99.90;;;;;;5027168;28;20613;-58
2022/12/09 06:29:57;;;;;;;30.63;14.70;;;-0.70;99.90;;;;;;5026022;28;20429;-58
2022/12/09 06:32:23;;;;;;;29.37;14.83;;;-0.70;99.90;;;;;;5027616;28;20177;-58
2022/12/09 06:34:49;;;;;;;34.70;14.20;;;-0.70;99.90;;;;;;5025212;28;20194;-57
2022/12/09 06:37:15;;;;;;;33.50;17.03;;;-0.70;99.90;;;;;;5025562;28;20337;-55
2022/12/09 06:39:41;;;;;;;24.47;14.20;;;-0.70;99.90;;;;;;5029205;28;20264;-54
2022/12/09 06:42:06;;;;;;;30.20;16.23;;;-0.70;99.90;;;;;;5025730;28;20570;-58
2022/12/09 06:44:32;;;;;;;32.27;14.53;;;-0.70;99.90;;;;;;5029852;28;20550;-57
2022/12/09 06:46:58;;;;;;;35.43;15.23;;;-0.60;99.90;;;;;;5028628;28;20170;-58
2022/12/09 06:49:24;;;;;;;28.03;14.37;;;-0.60;99.90;;;;;;5029222;28;20908;-58
2022/12/09 06:51:49;;;;;;;29.77;14.23;;;-0.60;99.90;;;;;;5031229;28;20521;-58
2022/12/09 06:54:15;;;;;;;29.30;14.67;;;-0.60;99.90;;;;;;5025768;28;20185;-58
2022/12/09 06:56:41;;;;;;;32.53;14.77;;;-0.60;99.90;;;;;;5021926;28;20340;-58
2022/12/09 06:59:08;;;;;;;37.53;16.93;;;-0.60;99.90;;;;;;5018829;28;20212;-58
2022/12/09 07:01:34;;;;;;;31.60;15.40;;;-0.60;99.90;;;;;;5018430;28;20193;-58
2022/12/09 07:04:01;;;;;;;30.43;15.13;;;-0.60;99.90;;;;;;5022665;28;20429;-58
2022/12/09 07:06:29;;;;;;;35.63;14.50;;;-0.60;99.90;;;;;;5007041;28;20430;-58
2022/12/09 07:08:56;;;;;;;32.30;15.80;;;-0.60;99.90;;;;;;5026456;28;20450;-58
2022/12/09 07:11:22;;;;;;;29.97;16.00;;;-0.60;99.90;;;;;;5023882;28;20435;-59
2022/12/09 07:13:49;;;;;;;39.00;15.20;;;-0.60;99.90;;;;;;5026592;28;20432;-61
2022/12/09 07:16:15;;;;;;;29.70;14.53;;;-0.60;99.90;;;;;;5026003;28;20175;-58
2022/12/09 07:18:41;;;;;;;26.97;13.67;;;-0.60;99.90;;;;;;5028175;28;20456;-58
2022/12/09 07:21:13;;;;;;;31.33;14.20;;;-0.60;99.90;;;;;;5024955;28;20744;-59
2022/12/09 07:23:39;;;;;;;30.10;14.10;;;-0.60;99.90;;;;;;5012575;28;20176;-58
2022/12/09 07:26:05;;;;;;;29.23;13.70;;;-0.60;99.90;;;;;;5022786;28;20802;-59
2022/12/09 07:28:35;;;;;;;34.00;15.37;;;-0.60;99.90;;;;;;5028472;28;20194;-58
2022/12/09 07:31:02;;;;;;;30.90;14.17;;;-0.60;99.90;;;;;;5023353;28;20463;-59
2022/12/09 07:33:28;;;;;;;29.70;14.87;;;-0.60;99.90;;;;;;5024351;28;20433;-58
2022/12/09 07:35:55;;;;;;;26.57;14.23;;;-0.60;99.90;;;;;;5029911;28;20950;-58
2022/12/09 07:38:22;;;;;;;26.37;13.70;;;-0.60;99.90;;;;;;5023049;28;20890;-58
2022/12/09 07:40:47;;;;;;;27.70;13.60;;;-0.60;99.90;;;;;;5027046;28;20524;-58
2022/12/09 07:43:13;;;;;;;27.00;13.77;;;-0.60;99.90;;;;;;5025148;28;20854;-59
2022/12/09 07:45:39;;;;;;;30.97;15.27;;;-0.50;99.90;;;;;;5030718;28;20176;-60
2022/12/09 07:48:07;;;;;;;28.97;14.83;;;-0.50;99.90;;;;;;5027591;28;20196;-60
2022/12/09 07:50:33;;;;;;;25.87;13.93;;;-0.50;99.90;;;;;;5011447;28;20467;-58
2022/12/09 07:52:59;;;;;;;30.83;13.80;;;-0.50;99.90;;;;;;5026131;28;20418;-58
2022/12/09 07:55:24;;;;;;;28.93;16.07;;;-0.50;99.90;;;;;;5028314;28;20428;-58
2022/12/09 07:57:50;;;;;;;24.97;13.40;;;-0.50;99.90;;;;;;5030712;28;20286;-59
2022/12/09 08:00:16;;;;;;;28.00;15.10;;;-0.40;99.90;;;;;;5025756;28;20524;-59
2022/12/09 08:02:42;;;;;;;27.77;15.20;;;-0.50;99.90;;;;;;5009804;28;21192;-59
2022/12/09 08:05:07;;;;;;;32.73;14.70;;;-0.40;99.90;;;;;;5030610;28;20465;-59
2022/12/09 08:07:33;;;;;;;31.43;15.20;;;-0.40;99.90;;;;;;5018932;28;20281;-58
2022/12/09 08:09:59;;;;;;;30.30;15.03;;;-0.40;99.90;;;;;;5026901;28;20181;-61
2022/12/09 08:12:24;;;;;;;33.23;15.43;;;-0.40;99.90;;;;;;5026767;28;20183;-59
2022/12/09 08:14:50;;;;;;;30.07;15.13;;;-0.40;99.90;;;;;;5030359;28;20167;-58
2022/12/09 08:17:16;;;;;;;29.87;15.30;;;-0.30;99.90;;;;;;5024452;28;20771;-58
2022/12/09 08:19:42;;;;;;;26.33;13.37;;;-0.30;99.90;;;;;;5029682;28;20188;-59
2022/12/09 08:22:08;;;;;;;31.70;14.77;;;-0.30;99.90;;;;;;5024879;28;20500;-58
2022/12/09 08:24:34;;;;;;;28.10;14.87;;;-0.30;99.90;;;;;;5029150;28;20170;-58
2022/12/09 08:26:59;;;;;;;24.33;13.53;;;-0.20;99.90;;;;;;5022570;28;20190;-60
2022/12/09 08:29:25;;;;;;;28.17;15.00;;;-0.20;99.90;;;;;;5025035;28;20662;-59
2022/12/09 08:31:51;;;;;;;28.80;14.67;;;-0.20;99.90;;;;;;5027495;28;20745;-60
2022/12/09 08:34:17;;;;;;;33.30;16.50;;;-0.20;99.90;;;;;;5028725;28;20643;-59
2022/12/09 08:36:42;;;;;;;30.17;14.93;;;-0.20;99.90;;;;;;5016672;28;20417;-61
2022/12/09 08:39:10;;;;;;;29.40;16.10;;;-0.20;99.90;;;;;;5033343;28;20576;-59
2022/12/09 08:41:36;;;;;;;27.93;14.90;;;-0.10;99.90;;;;;;5024667;28;20646;-59
2022/12/09 08:44:12;;;;;;;34.37;15.50;;;-0.10;99.90;;;;;;5027077;28;20429;-59
2022/12/09 08:46:40;;;;;;;27.40;14.90;;;-0.10;99.90;;;;;;5025639;28;21078;-59
2022/12/09 08:49:06;;;;;;;29.87;13.97;;;-0.10;99.90;;;;;;5029777;28;20486;-58
2022/12/09 08:51:33;;;;;;;29.53;14.53;;;-0.10;99.90;;;;;;5025553;28;20431;-59
2022/12/09 08:53:59;;;;;;;33.40;15.90;;;-0.10;99.90;;;;;;5026341;28;20432;-59
2022/12/09 08:56:25;;;;;;;29.67;14.30;;;-0.10;99.90;;;;;;5026450;28;20573;-59
2022/12/09 08:58:52;;;;;;;28.20;15.43;;;0.00;99.90;;;;;;5028443;28;20465;-59
2022/12/09 09:01:21;;;;;;;30.73;15.20;;;0.00;99.90;;;;;;5027131;28;20420;-59
2022/12/09 09:03:48;;;;;;;30.77;15.43;;;0.00;99.90;;;;;;5026289;28;20428;-59
2022/12/09 09:06:15;;;;;;;32.70;14.60;;;0.00;99.90;;;;;;5022004;28;20774;-58
2022/12/09 09:08:41;;;;;;;30.00;14.83;;;0.00;99.90;;;;;;5029660;28;21046;-59
2022/12/09 09:11:12;;;;;;;31.93;14.43;;;0.00;99.90;;;;;;5026469;28;20432;-59
2022/12/09 09:13:39;;;;;;;31.17;14.50;;;0.00;99.90;;;;;;5002772;28;20436;-59
2022/12/09 09:16:10;;;;;;;29.00;15.23;;;0.00;99.90;;;;;;5028124;28;20419;-60
2022/12/09 09:18:36;;;;;;;32.20;14.53;;;0.00;99.90;;;;;;5028838;28;21004;-59
2022/12/09 09:21:01;;;;;;;34.67;16.20;;;0.10;99.90;;;;;;5018522;28;20427;-60
2022/12/09 09:23:27;;;;;;;29.73;16.07;;;0.10;99.90;;;;;;5024856;28;20464;-61
2022/12/09 09:25:53;;;;;;;37.27;18.27;;;0.10;99.90;;;;;;5019341;28;20171;-59
2022/12/09 09:28:18;;;;;;;34.33;16.07;;;0.20;99.90;;;;;;5026461;28;20620;-59
2022/12/09 09:30:49;;;;;;;29.27;15.10;;;0.20;99.90;;;;;;5023627;28;20183;-59
2022/12/09 09:33:16;;;;;;;33.73;16.20;;;0.30;99.90;;;;;;5026035;28;20214;-59
2022/12/09 09:35:42;;;;;;;27.63;15.00;;;0.30;99.90;;;;;;5020508;28;20895;-61
2022/12/09 09:38:07;;;;;;;27.43;14.47;;;0.40;99.90;;;;;;5029138;28;20500;-59
2022/12/09 09:40:33;;;;;;;30.60;15.50;;;0.40;99.90;;;;;;5023763;28;20265;-59
2022/12/09 09:43:00;;;;;;;35.43;16.17;;;0.40;99.90;;;;;;5023216;28;20761;-59
2022/12/09 09:45:27;;;;;;;34.43;16.70;;;0.50;99.90;;;;;;5028787;28;20459;-60
2022/12/09 09:48:01;;;;;;;33.57;17.97;;;0.50;99.90;;;;;;5029328;28;20475;-60
2022/12/09 09:50:52;;;;;;;29.40;15.83;;;0.50;99.90;;;;;;5019573;28;20884;-59
2022/12/09 09:53:29;;;;;;;29.67;15.63;;;0.60;99.90;;;;;;5004060;28;20460;-60
2022/12/09 09:55:59;;;;;;;33.93;18.10;;;0.60;99.90;;;;;;5019082;28;20441;-60
2022/12/09 09:58:43;;;;;;;32.17;16.17;;;0.60;99.90;;;;;;5024225;28;20465;-59
2022/12/09 10:01:12;;;;;;;34.10;16.43;;;0.60;99.90;;;;;;5026364;28;20435;-60
2022/12/09 10:04:09;;;;;;;30.20;16.80;;;0.60;99.90;;;;;;5018963;28;20438;-59
2022/12/09 10:06:53;;;;;;;35.40;16.17;;;0.60;99.90;;;;;;5014463;28;20431;-60
2022/12/09 10:09:21;;;;;;;28.73;14.43;;;0.60;99.90;;;;;;5027969;28;20420;-60
2022/12/09 10:11:46;;;;;;;36.13;15.10;;;0.60;99.90;;;;;;5016427;28;20844;-61
2022/12/09 10:14:21;;;;;;;34.70;17.33;;;0.60;99.90;;;;;;5008852;28;20428;-61
2022/12/09 10:17:10;;;;;;;32.10;17.03;;;0.60;99.90;;;;;;5025825;28;20631;-59
2022/12/09 10:19:46;;;;;;;29.13;14.83;;;0.60;99.90;;;;;;5025352;28;20441;-59
2022/12/09 10:22:16;;;;;;;31.40;16.13;;;0.60;99.90;;;;;;5024790;28;20425;-59
2022/12/09 10:24:47;;;;;;;29.57;15.07;;;0.50;99.90;;;;;;5008059;28;20448;-61
2022/12/09 10:27:21;;;;;;;29.73;15.80;;;0.50;99.90;;;;;;5026573;28;20867;-60
2022/12/09 10:30:01;;;;;;;25.77;13.37;;;0.50;99.90;;;;;;5006306;28;20432;-59
2022/12/09 10:32:31;;;;;;;28.53;13.50;;;0.50;99.90;;;;;;5025401;28;21264;-59
2022/12/09 10:34:57;;;;;;;31.67;16.17;;;0.50;99.90;;;;;;5026405;28;20452;-59
2022/12/09 10:37:29;;;;;;;33.30;14.63;;;0.60;99.90;;;;;;5023431;28;20981;-59
2022/12/09 10:40:19;;;;;;;27.30;14.70;;;0.60;99.90;;;;;;5028417;28;20421;-59
2022/12/09 10:45:48;;;;;;;31.87;17.47;;;0.60;99.90;;;;;;5020070;28;20445;-59
2022/12/09 10:48:36;;;;;;;27.33;14.10;;;0.70;99.90;;;;;;5020050;28;20991;-60
2022/12/09 10:51:18;;;;;;;27.87;14.80;;;0.80;99.90;;;;;;5026364;28;21000;-60
2022/12/09 10:53:48;;;;;;;28.93;15.30;;;0.80;99.90;;;;;;5023714;28;20477;-59
2022/12/09 10:56:26;;;;;;;31.20;15.80;;;0.90;99.90;;;;;;5023067;28;20843;-59
2022/12/09 10:59:13;;;;;;;31.97;15.77;;;0.90;99.90;;;;;;5029262;28;20481;-60
2022/12/09 11:01:56;;;;;;;33.90;17.20;;;0.90;99.90;;;;;;5024654;28;20424;-60
2022/12/09 11:04:35;;;;;;;32.80;16.73;;;1.00;99.90;;;;;;5027673;28;20436;-61
2022/12/09 11:07:21;;;;;;;32.30;15.33;;;1.00;99.90;;;;;;5031851;28;20458;-59
2022/12/09 11:09:49;;;;;;;32.43;16.10;;;1.10;99.90;;;;;;5026240;28;20502;-59
2022/12/09 11:12:38;;;;;;;28.23;14.73;;;1.10;99.90;;;;;;5013684;28;21000;-59
2022/12/09 11:15:36;;;;;;;29.20;15.47;;;1.10;99.90;;;;;;5027506;28;20485;-61
2022/12/09 11:18:12;;;;;;;28.93;15.77;;;1.10;99.90;;;;;;5022538;28;20500;-59
2022/12/09 11:20:38;;;;;;;28.37;15.10;;;1.10;99.90;;;;;;5028154;28;20610;-59
2022/12/09 11:23:15;;;;;;;33.27;16.90;;;1.10;99.90;;;;;;5025311;28;20535;-58
2022/12/09 11:25:59;;;;;;;33.60;16.13;;;1.10;99.90;;;;;;5020962;28;20172;-58
2022/12/09 11:28:37;;;;;;;27.43;14.10;;;1.10;99.90;;;;;;5029858;28;20976;-58
2022/12/09 11:31:13;;;;;;;25.10;14.33;;;1.00;99.90;;;;;;5027300;28;20426;-58
2022/12/09 11:33:52;;;;;;;30.00;14.83;;;1.10;99.90;;;;;;5025482;28;21000;-59
2022/12/09 11:36:21;;;;;;;32.23;17.00;;;1.00;99.90;;;;;;5021932;28;20960;-59
2022/12/09 11:38:50;;;;;;;35.87;17.83;;;1.00;99.90;;;;;;5023660;28;20492;-58
2022/12/09 11:44:33;;;;;;;37.20;19.13;;;1.00;99.90;;;;;;5028713;28;20405;-58
2022/12/09 11:47:09;;;;;;;31.63;16.97;;;0.90;99.90;;;;;;5010521;28;20441;-58
2022/12/09 11:50:01;;;;;;;32.23;17.23;;;1.00;99.90;;;;;;5023537;28;20518;-58
2022/12/09 11:52:29;;;;;;;35.23;16.87;;;1.00;99.90;;;;;;5026871;28;20431;-58
2022/12/09 11:55:10;;;;;;;36.63;17.13;;;1.00;99.90;;;;;;5024762;28;20437;-57
2022/12/09 11:57:40;;;;;;;39.13;18.67;;;1.00;99.90;;;;;;5028590;28;20473;-60
2022/12/09 12:00:17;;;;;;;43.23;20.60;;;1.00;99.90;;;;;;5024977;28;20649;-58
2022/12/09 12:03:02;;;;;;;38.20;18.70;;;1.10;99.90;;;;;;5023496;28;20526;-58
2022/12/09 12:05:41;;;;;;;34.83;17.30;;;1.00;99.90;;;;;;5023479;28;20410;-58
2022/12/09 12:08:07;;;;;;;39.50;18.03;;;1.00;99.90;;;;;;5012900;28;21171;-58
2022/12/09 12:10:51;;;;;;;34.60;17.10;;;1.00;99.90;;;;;;5021839;28;20525;-58
2022/12/09 12:13:27;;;;;;;36.53;18.50;;;1.00;99.90;;;;;;5022351;28;20218;-58
2022/12/09 12:16:12;;;;;;;34.33;17.20;;;1.10;99.90;;;;;;5018644;28;20455;-59
2022/12/09 12:19:01;;;;;;;34.27;18.20;;;1.10;99.90;;;;;;5017277;28;21061;-60
2022/12/09 12:21:43;;;;;;;36.00;18.33;;;1.20;99.90;;;;;;4984189;28;21006;-59
2022/12/09 12:24:12;;;;;;;32.87;16.27;;;1.20;99.90;;;;;;5021445;28;20440;-58
2022/12/09 12:27:13;;;;;;;33.70;16.87;;;1.30;99.90;;;;;;5016183;28;20433;-59
2022/12/09 12:29:59;;;;;;;33.80;17.30;;;1.30;99.90;;;;;;5015418;28;20478;-59
2022/12/09 12:33:02;;;;;;;41.53;18.63;;;1.30;99.90;;;;;;5016222;28;20437;-60
2022/12/09 12:35:36;;;;;;;33.00;16.53;;;1.30;99.90;;;;;;5003878;28;20499;-59
2022/12/09 12:38:46;;;;;;;33.87;17.33;;;1.30;99.90;;;;;;5020489;28;21049;-60
2022/12/09 12:41:21;;;;;;;29.80;16.03;;;1.30;99.90;;;;;;4986379;28;20430;-60
2022/12/09 12:47:26;;;;;;;37.93;18.00;;;1.30;99.90;;;;;;5015154;28;20487;-58
2022/12/09 12:50:25;;;;;;;36.50;17.33;;;1.40;99.90;;;;;;5019776;28;20585;-58
2022/12/09 12:53:06;;;;;;;32.27;16.50;;;1.40;99.90;;;;;;5019608;28;20505;-58
2022/12/09 12:56:01;;;;;;;39.70;18.10;;;1.40;99.90;;;;;;5001553;28;20525;-60
2022/12/09 12:58:27;;;;;;;37.70;18.93;;;1.40;99.90;;;;;;5018581;28;20996;-58
2022/12/09 13:01:14;;;;;;;44.23;21.83;;;1.50;99.90;;;;;;5017325;28;20414;-59